Accueil
METAR-TAF:

METAR-TAF

Aéroports :

McMinnville, Oregon, États-Unis

latitude: 45-11-46N, longitude: 123-07-56W, altitude: 48 m

Observation

Le bulletin a été fait il y a 23 minutes, à 08:24 UTC
Vent 7 kt de sud-ouest
Température 16°C
Humidité 88%
Pression 1014 hPa
Visibilité: 16.1 km
Nuages épars à une hauteur de 2700 ft
Ciel couvert à une hauteur de 3500 ft

METAR: KMMV 220824Z AUTO 22007KT 10SM SCT027 OVC035 16/14 A2995 RMK AO2 T01610139

Heure: 01:47 (08:47 UTC)


TAF: absent

Observations et prévisions météorologiques de plus de 4000 aéroports (messages METAR et TAF).

Les stations disponibles sont représentées par des disques jaunes et rouges sur la carte.

Passer la souris dessus pour voir le nom de la station.

Cliquer dessus pour voir les observations et prévisions météorologiques.

Pour changer de carte: cliquez sur les boutons verts avec une croix noire pour zoomer, sur le bouton vert avec un tiret pour effectuer un zoom arrière, ou sur les flèches vertes pour les cartes adjacentes.


METAR-TAF: